sensor_id;sensor_type;location;lat;lon;timestamp;P1;durP1;ratioP1;P2;durP2;ratioP2
57826;SDS011;43656;57.746;11.780;2022-10-26T00:01:27;16.00;;;2.38;;
57826;SDS011;43656;57.746;11.780;2022-10-26T00:03:53;14.10;;;2.20;;
57826;SDS011;43656;57.746;11.780;2022-10-26T00:06:21;18.17;;;1.80;;
57826;SDS011;43656;57.746;11.780;2022-10-26T00:08:50;13.93;;;1.80;;
57826;SDS011;43656;57.746;11.780;2022-10-26T00:11:17;11.40;;;2.15;;
57826;SDS011;43656;57.746;11.780;2022-10-26T00:13:44;9.30;;;1.33;;
57826;SDS011;43656;57.746;11.780;2022-10-26T00:16:11;11.48;;;2.17;;
57826;SDS011;43656;57.746;11.780;2022-10-26T00:18:48;10.45;;;1.60;;
57826;SDS011;43656;57.746;11.780;2022-10-26T00:21:14;8.45;;;1.67;;
57826;SDS011;43656;57.746;11.780;2022-10-26T00:23:40;9.80;;;1.50;;
57826;SDS011;43656;57.746;11.780;2022-10-26T00:26:06;10.68;;;1.10;;
57826;SDS011;43656;57.746;11.780;2022-10-26T00:28:32;10.60;;;1.60;;
57826;SDS011;43656;57.746;11.780;2022-10-26T00:31:05;7.65;;;1.33;;
57826;SDS011;43656;57.746;11.780;2022-10-26T00:35:58;11.27;;;1.38;;
57826;SDS011;43656;57.746;11.780;2022-10-26T00:38:24;11.90;;;1.30;;
57826;SDS011;43656;57.746;11.780;2022-10-26T00:40:49;12.63;;;1.40;;
57826;SDS011;43656;57.746;11.780;2022-10-26T00:45:46;10.30;;;1.73;;
57826;SDS011;43656;57.746;11.780;2022-10-26T00:48:20;9.85;;;1.35;;
57826;SDS011;43656;57.746;11.780;2022-10-26T00:50:50;11.65;;;1.40;;
57826;SDS011;43656;57.746;11.780;2022-10-26T00:53:17;11.93;;;1.55;;
57826;SDS011;43656;57.746;11.780;2022-10-26T00:55:44;9.30;;;1.58;;
57826;SDS011;43656;57.746;11.780;2022-10-26T00:58:12;7.55;;;1.20;;
57826;SDS011;43656;57.746;11.780;2022-10-26T01:00:38;9.70;;;1.70;;
57826;SDS011;43656;57.746;11.780;2022-10-26T01:03:06;9.27;;;1.20;;
57826;SDS011;43656;57.746;11.780;2022-10-26T01:05:33;6.38;;;1.35;;
57826;SDS011;43656;57.746;11.780;2022-10-26T01:08:01;9.20;;;1.60;;
57826;SDS011;43656;57.746;11.780;2022-10-26T01:10:50;8.73;;;1.30;;
57826;SDS011;43656;57.746;11.780;2022-10-26T01:13:16;6.32;;;1.30;;
57826;SDS011;43656;57.746;11.780;2022-10-26T01:18:53;7.82;;;1.23;;
57826;SDS011;43656;57.746;11.780;2022-10-26T01:21:46;10.48;;;1.63;;
57826;SDS011;43656;57.746;11.780;2022-10-26T01:27:52;11.77;;;1.55;;
57826;SDS011;43656;57.746;11.780;2022-10-26T01:43:24;7.45;;;1.55;;
57826;SDS011;43656;57.746;11.780;2022-10-26T01:45:52;12.65;;;1.50;;
57826;SDS011;43656;57.746;11.780;2022-10-26T01:48:19;8.63;;;1.73;;
57826;SDS011;43656;57.746;11.780;2022-10-26T01:50:49;15.00;;;1.63;;
57826;SDS011;43656;57.746;11.780;2022-10-26T01:53:17;10.63;;;1.70;;
57826;SDS011;43656;57.746;11.780;2022-10-26T01:55:50;10.20;;;1.63;;
57826;SDS011;43656;57.746;11.780;2022-10-26T01:58:30;10.35;;;1.48;;
57826;SDS011;43656;57.746;11.780;2022-10-26T02:11:55;8.85;;;1.33;;
57826;SDS011;43656;57.746;11.780;2022-10-26T02:17:13;12.05;;;2.08;;
57826;SDS011;43656;57.746;11.780;2022-10-26T02:20:00;13.05;;;2.15;;
57826;SDS011;43656;57.746;11.780;2022-10-26T02:22:34;13.45;;;1.55;;
57826;SDS011;43656;57.746;11.780;2022-10-26T02:25:06;12.80;;;1.63;;
57826;SDS011;43656;57.746;11.780;2022-10-26T02:27:36;12.02;;;2.00;;
57826;SDS011;43656;57.746;11.780;2022-10-26T02:30:07;9.23;;;1.38;;
57826;SDS011;43656;57.746;11.780;2022-10-26T02:32:35;13.48;;;1.73;;
57826;SDS011;43656;57.746;11.780;2022-10-26T02:35:05;8.05;;;1.50;;
57826;SDS011;43656;57.746;11.780;2022-10-26T02:37:31;6.93;;;1.27;;
57826;SDS011;43656;57.746;11.780;2022-10-26T02:39:59;10.68;;;1.45;;
57826;SDS011;43656;57.746;11.780;2022-10-26T02:42:30;8.75;;;1.25;;
57826;SDS011;43656;57.746;11.780;2022-10-26T02:44:58;9.70;;;1.50;;
57826;SDS011;43656;57.746;11.780;2022-10-26T02:47:31;8.18;;;1.23;;
57826;SDS011;43656;57.746;11.780;2022-10-26T02:50:00;8.02;;;1.38;;
57826;SDS011;43656;57.746;11.780;2022-10-26T02:55:05;10.85;;;2.25;;
57826;SDS011;43656;57.746;11.780;2022-10-26T02:57:36;8.48;;;1.20;;
57826;SDS011;43656;57.746;11.780;2022-10-26T03:00:08;12.52;;;1.50;;
57826;SDS011;43656;57.746;11.780;2022-10-26T03:02:36;8.15;;;1.60;;
57826;SDS011;43656;57.746;11.780;2022-10-26T03:05:18;8.40;;;1.65;;
57826;SDS011;43656;57.746;11.780;2022-10-26T03:07:48;6.00;;;1.30;;
57826;SDS011;43656;57.746;11.780;2022-10-26T03:10:13;11.63;;;1.42;;
57826;SDS011;43656;57.746;11.780;2022-10-26T03:12:39;9.73;;;1.48;;
57826;SDS011;43656;57.746;11.780;2022-10-26T03:15:04;14.65;;;1.98;;
57826;SDS011;43656;57.746;11.780;2022-10-26T03:17:30;10.02;;;1.33;;
57826;SDS011;43656;57.746;11.780;2022-10-26T03:19:55;7.78;;;1.30;;
57826;SDS011;43656;57.746;11.780;2022-10-26T03:22:21;8.50;;;1.50;;
57826;SDS011;43656;57.746;11.780;2022-10-26T03:24:47;12.23;;;1.42;;
57826;SDS011;43656;57.746;11.780;2022-10-26T03:27:13;8.13;;;1.10;;
57826;SDS011;43656;57.746;11.780;2022-10-26T03:29:38;10.68;;;1.85;;
57826;SDS011;43656;57.746;11.780;2022-10-26T03:32:04;10.95;;;1.25;;
57826;SDS011;43656;57.746;11.780;2022-10-26T03:34:30;11.07;;;1.63;;
57826;SDS011;43656;57.746;11.780;2022-10-26T03:36:55;7.50;;;1.40;;
57826;SDS011;43656;57.746;11.780;2022-10-26T03:39:21;6.90;;;1.23;;
57826;SDS011;43656;57.746;11.780;2022-10-26T03:41:46;11.98;;;1.45;;
57826;SDS011;43656;57.746;11.780;2022-10-26T03:44:12;9.07;;;1.45;;
57826;SDS011;43656;57.746;11.780;2022-10-26T03:46:37;6.25;;;1.20;;
57826;SDS011;43656;57.746;11.780;2022-10-26T03:49:03;10.77;;;1.70;;
57826;SDS011;43656;57.746;11.780;2022-10-26T03:51:28;11.23;;;1.73;;
57826;SDS011;43656;57.746;11.780;2022-10-26T03:53:54;14.13;;;1.60;;
57826;SDS011;43656;57.746;11.780;2022-10-26T03:56:19;7.55;;;1.30;;
57826;SDS011;43656;57.746;11.780;2022-10-26T03:58:44;9.70;;;1.30;;
57826;SDS011;43656;57.746;11.780;2022-10-26T04:01:10;10.38;;;1.58;;
57826;SDS011;43656;57.746;11.780;2022-10-26T04:03:35;8.90;;;1.20;;
57826;SDS011;43656;57.746;11.780;2022-10-26T04:06:01;9.15;;;1.10;;
57826;SDS011;43656;57.746;11.780;2022-10-26T04:08:27;11.48;;;1.50;;
57826;SDS011;43656;57.746;11.780;2022-10-26T04:10:52;7.10;;;1.13;;
57826;SDS011;43656;57.746;11.780;2022-10-26T04:13:18;11.45;;;1.65;;
57826;SDS011;43656;57.746;11.780;2022-10-26T04:15:46;8.02;;;1.52;;
57826;SDS011;43656;57.746;11.780;2022-10-26T04:18:11;9.30;;;1.13;;
57826;SDS011;43656;57.746;11.780;2022-10-26T04:20:37;9.63;;;1.42;;
57826;SDS011;43656;57.746;11.780;2022-10-26T04:23:06;9.02;;;1.40;;
57826;SDS011;43656;57.746;11.780;2022-10-26T04:25:34;8.13;;;1.02;;
57826;SDS011;43656;57.746;11.780;2022-10-26T04:28:00;9.00;;;1.17;;
57826;SDS011;43656;57.746;11.780;2022-10-26T04:30:26;6.18;;;0.93;;
57826;SDS011;43656;57.746;11.780;2022-10-26T04:32:51;9.60;;;1.48;;
57826;SDS011;43656;57.746;11.780;2022-10-26T04:35:16;7.00;;;0.90;;
57826;SDS011;43656;57.746;11.780;2022-10-26T04:37:42;5.72;;;1.08;;
57826;SDS011;43656;57.746;11.780;2022-10-26T04:40:07;8.75;;;1.20;;
57826;SDS011;43656;57.746;11.780;2022-10-26T04:42:43;7.47;;;0.85;;
57826;SDS011;43656;57.746;11.780;2022-10-26T04:45:10;3.92;;;0.70;;
57826;SDS011;43656;57.746;11.780;2022-10-26T04:47:36;10.23;;;1.25;;
57826;SDS011;43656;57.746;11.780;2022-10-26T04:50:02;6.18;;;1.00;;
57826;SDS011;43656;57.746;11.780;2022-10-26T04:52:27;7.57;;;0.80;;
57826;SDS011;43656;57.746;11.780;2022-10-26T04:54:53;12.20;;;1.10;;
57826;SDS011;43656;57.746;11.780;2022-10-26T04:57:18;7.15;;;1.13;;
57826;SDS011;43656;57.746;11.780;2022-10-26T04:59:44;6.65;;;0.98;;
57826;SDS011;43656;57.746;11.780;2022-10-26T05:02:09;6.85;;;0.63;;
57826;SDS011;43656;57.746;11.780;2022-10-26T05:04:34;7.63;;;1.27;;
57826;SDS011;43656;57.746;11.780;2022-10-26T05:07:00;5.80;;;0.93;;
57826;SDS011;43656;57.746;11.780;2022-10-26T05:09:25;6.13;;;1.10;;
57826;SDS011;43656;57.746;11.780;2022-10-26T05:11:50;9.88;;;1.48;;
57826;SDS011;43656;57.746;11.780;2022-10-26T05:14:16;8.90;;;1.00;;
57826;SDS011;43656;57.746;11.780;2022-10-26T05:16:41;4.85;;;0.98;;
57826;SDS011;43656;57.746;11.780;2022-10-26T05:19:08;7.60;;;1.40;;
57826;SDS011;43656;57.746;11.780;2022-10-26T05:21:34;11.13;;;1.20;;
57826;SDS011;43656;57.746;11.780;2022-10-26T05:23:59;10.18;;;1.30;;
57826;SDS011;43656;57.746;11.780;2022-10-26T05:26:25;13.40;;;1.50;;
57826;SDS011;43656;57.746;11.780;2022-10-26T05:28:50;11.70;;;1.33;;
57826;SDS011;43656;57.746;11.780;2022-10-26T05:31:17;9.20;;;1.80;;
57826;SDS011;43656;57.746;11.780;2022-10-26T05:33:42;7.30;;;1.58;;
57826;SDS011;43656;57.746;11.780;2022-10-26T05:36:08;9.57;;;1.80;;
57826;SDS011;43656;57.746;11.780;2022-10-26T05:38:33;10.35;;;1.20;;
57826;SDS011;43656;57.746;11.780;2022-10-26T05:40:59;12.27;;;1.50;;
57826;SDS011;43656;57.746;11.780;2022-10-26T05:43:25;10.60;;;1.60;;
57826;SDS011;43656;57.746;11.780;2022-10-26T05:45:51;11.88;;;1.55;;
57826;SDS011;43656;57.746;11.780;2022-10-26T05:48:17;12.98;;;1.45;;
57826;SDS011;43656;57.746;11.780;2022-10-26T05:50:43;9.10;;;1.23;;
57826;SDS011;43656;57.746;11.780;2022-10-26T05:53:09;11.85;;;1.20;;
57826;SDS011;43656;57.746;11.780;2022-10-26T05:55:35;8.68;;;1.15;;
57826;SDS011;43656;57.746;11.780;2022-10-26T05:58:01;9.68;;;1.17;;
57826;SDS011;43656;57.746;11.780;2022-10-26T06:00:27;11.52;;;1.10;;
57826;SDS011;43656;57.746;11.780;2022-10-26T06:05:53;7.35;;;1.02;;
57826;SDS011;43656;57.746;11.780;2022-10-26T06:08:20;9.98;;;2.03;;
57826;SDS011;43656;57.746;11.780;2022-10-26T06:10:48;12.43;;;1.30;;
57826;SDS011;43656;57.746;11.780;2022-10-26T06:13:18;7.88;;;1.20;;
57826;SDS011;43656;57.746;11.780;2022-10-26T06:18:20;9.55;;;1.27;;
57826;SDS011;43656;57.746;11.780;2022-10-26T06:21:19;8.10;;;1.10;;
57826;SDS011;43656;57.746;11.780;2022-10-26T06:24:18;6.38;;;1.15;;
57826;SDS011;43656;57.746;11.780;2022-10-26T06:32:07;6.68;;;1.10;;
57826;SDS011;43656;57.746;11.780;2022-10-26T06:34:34;7.43;;;1.27;;
57826;SDS011;43656;57.746;11.780;2022-10-26T06:37:08;8.80;;;1.13;;
57826;SDS011;43656;57.746;11.780;2022-10-26T06:39:34;10.45;;;1.27;;
57826;SDS011;43656;57.746;11.780;2022-10-26T06:42:02;13.40;;;1.13;;
57826;SDS011;43656;57.746;11.780;2022-10-26T06:44:28;13.77;;;1.77;;
57826;SDS011;43656;57.746;11.780;2022-10-26T06:46:59;6.88;;;1.02;;
57826;SDS011;43656;57.746;11.780;2022-10-26T06:49:46;5.53;;;0.90;;
57826;SDS011;43656;57.746;11.780;2022-10-26T06:52:47;6.97;;;1.05;;
57826;SDS011;43656;57.746;11.780;2022-10-26T06:55:21;8.65;;;1.08;;
57826;SDS011;43656;57.746;11.780;2022-10-26T06:57:47;9.43;;;1.15;;
57826;SDS011;43656;57.746;11.780;2022-10-26T07:00:16;10.65;;;1.75;;
57826;SDS011;43656;57.746;11.780;2022-10-26T07:02:44;10.07;;;1.13;;
57826;SDS011;43656;57.746;11.780;2022-10-26T07:05:10;9.15;;;1.17;;
57826;SDS011;43656;57.746;11.780;2022-10-26T07:07:39;10.65;;;1.33;;
57826;SDS011;43656;57.746;11.780;2022-10-26T07:10:09;11.68;;;1.35;;
57826;SDS011;43656;57.746;11.780;2022-10-26T07:12:37;9.77;;;1.73;;
57826;SDS011;43656;57.746;11.780;2022-10-26T07:15:03;14.15;;;1.70;;
57826;SDS011;43656;57.746;11.780;2022-10-26T07:17:29;9.70;;;1.20;;
57826;SDS011;43656;57.746;11.780;2022-10-26T07:19:55;12.75;;;1.35;;
57826;SDS011;43656;57.746;11.780;2022-10-26T07:22:21;8.50;;;0.90;;
57826;SDS011;43656;57.746;11.780;2022-10-26T07:24:47;9.10;;;0.90;;
57826;SDS011;43656;57.746;11.780;2022-10-26T07:27:14;7.28;;;1.02;;
57826;SDS011;43656;57.746;11.780;2022-10-26T07:29:40;7.28;;;0.88;;
57826;SDS011;43656;57.746;11.780;2022-10-26T07:32:06;8.35;;;1.50;;
57826;SDS011;43656;57.746;11.780;2022-10-26T07:34:32;7.38;;;1.05;;
57826;SDS011;43656;57.746;11.780;2022-10-26T07:37:00;7.72;;;0.85;;
57826;SDS011;43656;57.746;11.780;2022-10-26T07:39:26;7.40;;;0.98;;
57826;SDS011;43656;57.746;11.780;2022-10-26T07:41:51;9.25;;;1.08;;
57826;SDS011;43656;57.746;11.780;2022-10-26T07:44:17;7.97;;;1.17;;
57826;SDS011;43656;57.746;11.780;2022-10-26T07:46:43;4.88;;;0.90;;
57826;SDS011;43656;57.746;11.780;2022-10-26T07:49:09;8.68;;;1.13;;
57826;SDS011;43656;57.746;11.780;2022-10-26T07:51:35;5.63;;;0.80;;
57826;SDS011;43656;57.746;11.780;2022-10-26T07:54:00;8.18;;;1.02;;
57826;SDS011;43656;57.746;11.780;2022-10-26T07:56:26;9.18;;;0.90;;
57826;SDS011;43656;57.746;11.780;2022-10-26T07:58:51;9.68;;;1.15;;
57826;SDS011;43656;57.746;11.780;2022-10-26T08:01:17;9.30;;;1.23;;
57826;SDS011;43656;57.746;11.780;2022-10-26T08:03:43;10.27;;;1.02;;
57826;SDS011;43656;57.746;11.780;2022-10-26T08:06:09;5.72;;;0.98;;
57826;SDS011;43656;57.746;11.780;2022-10-26T08:08:34;8.48;;;1.08;;
57826;SDS011;43656;57.746;11.780;2022-10-26T08:11:00;3.80;;;0.77;;
57826;SDS011;43656;57.746;11.780;2022-10-26T08:13:26;5.47;;;0.82;;
57826;SDS011;43656;57.746;11.780;2022-10-26T08:15:58;5.38;;;1.00;;
57826;SDS011;43656;57.746;11.780;2022-10-26T08:18:25;7.22;;;0.80;;
57826;SDS011;43656;57.746;11.780;2022-10-26T08:20:51;3.90;;;0.55;;
57826;SDS011;43656;57.746;11.780;2022-10-26T08:23:16;5.13;;;0.85;;
57826;SDS011;43656;57.746;11.780;2022-10-26T08:25:42;7.07;;;1.00;;
57826;SDS011;43656;57.746;11.780;2022-10-26T08:28:07;7.80;;;1.13;;
57826;SDS011;43656;57.746;11.780;2022-10-26T08:30:35;6.70;;;0.90;;
57826;SDS011;43656;57.746;11.780;2022-10-26T08:33:01;8.15;;;0.90;;
57826;SDS011;43656;57.746;11.780;2022-10-26T08:35:31;5.95;;;1.02;;
57826;SDS011;43656;57.746;11.780;2022-10-26T08:37:57;8.52;;;0.88;;
57826;SDS011;43656;57.746;11.780;2022-10-26T08:40:25;6.72;;;1.17;;
57826;SDS011;43656;57.746;11.780;2022-10-26T08:43:01;5.57;;;0.93;;
57826;SDS011;43656;57.746;11.780;2022-10-26T08:45:37;9.95;;;0.93;;
57826;SDS011;43656;57.746;11.780;2022-10-26T08:48:10;8.05;;;1.05;;
57826;SDS011;43656;57.746;11.780;2022-10-26T08:51:22;4.32;;;0.90;;
57826;SDS011;43656;57.746;11.780;2022-10-26T08:53:32;5.95;;;1.00;;
57826;SDS011;43656;57.746;11.780;2022-10-26T08:56:03;7.45;;;1.13;;
57826;SDS011;43656;57.746;11.780;2022-10-26T08:58:36;7.50;;;1.10;;
57826;SDS011;43656;57.746;11.780;2022-10-26T09:01:31;9.90;;;1.17;;
57826;SDS011;43656;57.746;11.780;2022-10-26T09:03:57;6.65;;;1.30;;
57826;SDS011;43656;57.746;11.780;2022-10-26T09:06:39;6.53;;;0.85;;
57826;SDS011;43656;57.746;11.780;2022-10-26T09:09:16;7.05;;;0.95;;
57826;SDS011;43656;57.746;11.780;2022-10-26T09:12:27;8.63;;;1.10;;
57826;SDS011;43656;57.746;11.780;2022-10-26T09:26:13;6.15;;;0.85;;
57826;SDS011;43656;57.746;11.780;2022-10-26T09:28:43;5.80;;;1.38;;
57826;SDS011;43656;57.746;11.780;2022-10-26T09:31:12;5.55;;;0.93;;
57826;SDS011;43656;57.746;11.780;2022-10-26T09:33:41;5.70;;;0.90;;
57826;SDS011;43656;57.746;11.780;2022-10-26T09:36:07;7.00;;;1.10;;
57826;SDS011;43656;57.746;11.780;2022-10-26T09:38:46;6.57;;;1.05;;
57826;SDS011;43656;57.746;11.780;2022-10-26T09:44:11;4.90;;;0.80;;
57826;SDS011;43656;57.746;11.780;2022-10-26T09:46:57;5.03;;;0.80;;
57826;SDS011;43656;57.746;11.780;2022-10-26T09:52:14;3.72;;;0.68;;
57826;SDS011;43656;57.746;11.780;2022-10-26T09:54:40;3.00;;;0.73;;
57826;SDS011;43656;57.746;11.780;2022-10-26T09:57:05;5.00;;;1.02;;
57826;SDS011;43656;57.746;11.780;2022-10-26T09:59:33;5.93;;;0.80;;
57826;SDS011;43656;57.746;11.780;2022-10-26T10:04:56;8.98;;;1.00;;
57826;SDS011;43656;57.746;11.780;2022-10-26T10:07:22;4.75;;;1.02;;
57826;SDS011;43656;57.746;11.780;2022-10-26T10:10:07;8.90;;;0.98;;
57826;SDS011;43656;57.746;11.780;2022-10-26T10:12:39;4.63;;;1.00;;
57826;SDS011;43656;57.746;11.780;2022-10-26T10:15:12;8.38;;;1.05;;
57826;SDS011;43656;57.746;11.780;2022-10-26T10:17:46;6.50;;;1.20;;
57826;SDS011;43656;57.746;11.780;2022-10-26T10:20:16;8.15;;;1.75;;
57826;SDS011;43656;57.746;11.780;2022-10-26T10:22:53;6.38;;;1.20;;
57826;SDS011;43656;57.746;11.780;2022-10-26T10:25:53;7.05;;;1.10;;
57826;SDS011;43656;57.746;11.780;2022-10-26T10:28:22;6.25;;;0.90;;
57826;SDS011;43656;57.746;11.780;2022-10-26T10:30:56;9.75;;;1.40;;
57826;SDS011;43656;57.746;11.780;2022-10-26T10:36:03;10.00;;;1.42;;
57826;SDS011;43656;57.746;11.780;2022-10-26T10:38:37;6.07;;;1.20;;
57826;SDS011;43656;57.746;11.780;2022-10-26T10:41:05;5.10;;;1.23;;
57826;SDS011;43656;57.746;11.780;2022-10-26T10:43:54;7.35;;;1.27;;
57826;SDS011;43656;57.746;11.780;2022-10-26T10:46:20;6.22;;;1.00;;
57826;SDS011;43656;57.746;11.780;2022-10-26T10:48:53;7.05;;;1.05;;
57826;SDS011;43656;57.746;11.780;2022-10-26T10:51:26;6.80;;;1.30;;
57826;SDS011;43656;57.746;11.780;2022-10-26T10:53:54;3.67;;;1.23;;
57826;SDS011;43656;57.746;11.780;2022-10-26T11:07:03;4.80;;;1.15;;
57826;SDS011;43656;57.746;11.780;2022-10-26T11:09:32;6.60;;;0.90;;
57826;SDS011;43656;57.746;11.780;2022-10-26T11:12:02;6.75;;;0.75;;
57826;SDS011;43656;57.746;11.780;2022-10-26T11:14:38;4.35;;;0.90;;
57826;SDS011;43656;57.746;11.780;2022-10-26T11:19:44;6.47;;;0.77;;
57826;SDS011;43656;57.746;11.780;2022-10-26T11:22:24;5.80;;;1.33;;
57826;SDS011;43656;57.746;11.780;2022-10-26T11:25:02;11.18;;;6.68;;
57826;SDS011;43656;57.746;11.780;2022-10-26T11:30:28;11.05;;;5.32;;
57826;SDS011;43656;57.746;11.780;2022-10-26T11:33:02;9.88;;;6.00;;
57826;SDS011;43656;57.746;11.780;2022-10-26T11:38:33;5.50;;;1.38;;
57826;SDS011;43656;57.746;11.780;2022-10-26T11:41:06;5.90;;;1.75;;
57826;SDS011;43656;57.746;11.780;2022-10-26T11:47:03;7.78;;;1.40;;
57826;SDS011;43656;57.746;11.780;2022-10-26T11:49:41;6.88;;;1.38;;
57826;SDS011;43656;57.746;11.780;2022-10-26T11:54:52;5.47;;;1.30;;
57826;SDS011;43656;57.746;11.780;2022-10-26T11:57:20;3.28;;;0.75;;
57826;SDS011;43656;57.746;11.780;2022-10-26T12:00:43;6.60;;;2.28;;
57826;SDS011;43656;57.746;11.780;2022-10-26T12:02:38;4.80;;;1.17;;
57826;SDS011;43656;57.746;11.780;2022-10-26T12:07:39;4.97;;;1.13;;
57826;SDS011;43656;57.746;11.780;2022-10-26T12:10:06;5.28;;;1.17;;
57826;SDS011;43656;57.746;11.780;2022-10-26T12:15:47;6.72;;;1.20;;
57826;SDS011;43656;57.746;11.780;2022-10-26T12:18:45;6.22;;;1.00;;
57826;SDS011;43656;57.746;11.780;2022-10-26T12:21:16;7.53;;;1.33;;
57826;SDS011;43656;57.746;11.780;2022-10-26T12:23:53;4.00;;;1.02;;
57826;SDS011;43656;57.746;11.780;2022-10-26T12:29:35;3.72;;;1.05;;
57826;SDS011;43656;57.746;11.780;2022-10-26T12:34:04;4.95;;;1.58;;
57826;SDS011;43656;57.746;11.780;2022-10-26T12:39:54;6.60;;;1.30;;
57826;SDS011;43656;57.746;11.780;2022-10-26T12:42:55;8.52;;;1.20;;
57826;SDS011;43656;57.746;11.780;2022-10-26T12:45:21;5.40;;;1.45;;
57826;SDS011;43656;57.746;11.780;2022-10-26T12:55:31;5.55;;;1.20;;
57826;SDS011;43656;57.746;11.780;2022-10-26T13:03:26;8.05;;;1.17;;
57826;SDS011;43656;57.746;11.780;2022-10-26T13:08:41;6.28;;;1.10;;
57826;SDS011;43656;57.746;11.780;2022-10-26T13:11:32;7.30;;;1.60;;
57826;SDS011;43656;57.746;11.780;2022-10-26T13:14:05;7.32;;;1.45;;
57826;SDS011;43656;57.746;11.780;2022-10-26T13:16:33;7.97;;;1.90;;
57826;SDS011;43656;57.746;11.780;2022-10-26T13:18:59;12.88;;;3.30;;
57826;SDS011;43656;57.746;11.780;2022-10-26T13:21:25;16.27;;;4.18;;
57826;SDS011;43656;57.746;11.780;2022-10-26T13:24:12;31.83;;;10.90;;
57826;SDS011;43656;57.746;11.780;2022-10-26T13:29:29;34.70;;;12.13;;
57826;SDS011;43656;57.746;11.780;2022-10-26T13:31:55;68.13;;;30.30;;
57826;SDS011;43656;57.746;11.780;2022-10-26T13:34:23;17.98;;;8.10;;
57826;SDS011;43656;57.746;11.780;2022-10-26T13:37:34;13.00;;;3.40;;
57826;SDS011;43656;57.746;11.780;2022-10-26T13:39:41;9.88;;;3.03;;
57826;SDS011;43656;57.746;11.780;2022-10-26T13:42:26;10.35;;;3.30;;
57826;SDS011;43656;57.746;11.780;2022-10-26T13:44:58;8.73;;;2.10;;
57826;SDS011;43656;57.746;11.780;2022-10-26T13:50:13;6.68;;;1.90;;
57826;SDS011;43656;57.746;11.780;2022-10-26T13:53:15;11.07;;;2.00;;
57826;SDS011;43656;57.746;11.780;2022-10-26T13:55:53;8.35;;;2.03;;
57826;SDS011;43656;57.746;11.780;2022-10-26T13:58:30;8.48;;;1.88;;
57826;SDS011;43656;57.746;11.780;2022-10-26T14:01:09;7.05;;;1.90;;
57826;SDS011;43656;57.746;11.780;2022-10-26T14:03:41;7.30;;;1.73;;
57826;SDS011;43656;57.746;11.780;2022-10-26T14:08:51;9.75;;;1.85;;
57826;SDS011;43656;57.746;11.780;2022-10-26T14:11:19;10.50;;;1.80;;
57826;SDS011;43656;57.746;11.780;2022-10-26T14:13:49;10.45;;;2.40;;
57826;SDS011;43656;57.746;11.780;2022-10-26T14:16:16;8.75;;;1.70;;
57826;SDS011;43656;57.746;11.780;2022-10-26T14:18:44;10.40;;;1.80;;
57826;SDS011;43656;57.746;11.780;2022-10-26T14:21:15;11.23;;;4.72;;
57826;SDS011;43656;57.746;11.780;2022-10-26T14:28:54;8.88;;;2.30;;
57826;SDS011;43656;57.746;11.780;2022-10-26T14:31:22;6.45;;;1.58;;
57826;SDS011;43656;57.746;11.780;2022-10-26T14:33:55;10.32;;;2.00;;
57826;SDS011;43656;57.746;11.780;2022-10-26T14:36:32;9.60;;;2.20;;
57826;SDS011;43656;57.746;11.780;2022-10-26T14:39:05;9.05;;;1.60;;
57826;SDS011;43656;57.746;11.780;2022-10-26T14:41:33;4.72;;;1.42;;
57826;SDS011;43656;57.746;11.780;2022-10-26T14:44:00;7.38;;;1.63;;
57826;SDS011;43656;57.746;11.780;2022-10-26T14:46:26;8.68;;;1.75;;
57826;SDS011;43656;57.746;11.780;2022-10-26T14:49:13;6.65;;;1.75;;
57826;SDS011;43656;57.746;11.780;2022-10-26T14:51:44;10.55;;;2.00;;
57826;SDS011;43656;57.746;11.780;2022-10-26T14:54:20;8.80;;;2.08;;
57826;SDS011;43656;57.746;11.780;2022-10-26T14:56:47;15.10;;;2.47;;
57826;SDS011;43656;57.746;11.780;2022-10-26T14:59:26;13.38;;;2.72;;
57826;SDS011;43656;57.746;11.780;2022-10-26T15:04:41;10.63;;;2.65;;
57826;SDS011;43656;57.746;11.780;2022-10-26T15:07:21;9.13;;;2.10;;
57826;SDS011;43656;57.746;11.780;2022-10-26T15:09:50;10.80;;;2.70;;
57826;SDS011;43656;57.746;11.780;2022-10-26T15:14:54;13.52;;;3.20;;
57826;SDS011;43656;57.746;11.780;2022-10-26T15:17:26;10.32;;;3.28;;
57826;SDS011;43656;57.746;11.780;2022-10-26T15:20:03;10.73;;;2.60;;
57826;SDS011;43656;57.746;11.780;2022-10-26T15:22:30;17.02;;;2.92;;
57826;SDS011;43656;57.746;11.780;2022-10-26T15:24:57;10.25;;;3.10;;
57826;SDS011;43656;57.746;11.780;2022-10-26T15:27:27;8.90;;;3.08;;
57826;SDS011;43656;57.746;11.780;2022-10-26T15:32:54;13.45;;;3.00;;
57826;SDS011;43656;57.746;11.780;2022-10-26T15:35:46;10.45;;;2.92;;
57826;SDS011;43656;57.746;11.780;2022-10-26T15:38:12;17.27;;;3.83;;
57826;SDS011;43656;57.746;11.780;2022-10-26T15:40:40;13.38;;;3.67;;
57826;SDS011;43656;57.746;11.780;2022-10-26T15:43:08;12.20;;;3.50;;
57826;SDS011;43656;57.746;11.780;2022-10-26T15:45:36;17.50;;;3.60;;
57826;SDS011;43656;57.746;11.780;2022-10-26T15:48:16;10.93;;;4.15;;
57826;SDS011;43656;57.746;11.780;2022-10-26T15:50:46;13.35;;;3.10;;
57826;SDS011;43656;57.746;11.780;2022-10-26T15:53:16;10.07;;;3.17;;
57826;SDS011;43656;57.746;11.780;2022-10-26T15:55:55;13.35;;;3.10;;
57826;SDS011;43656;57.746;11.780;2022-10-26T15:58:24;13.23;;;3.33;;
57826;SDS011;43656;57.746;11.780;2022-10-26T16:00:50;12.65;;;3.72;;
57826;SDS011;43656;57.746;11.780;2022-10-26T16:03:19;13.43;;;3.60;;
57826;SDS011;43656;57.746;11.780;2022-10-26T16:05:58;12.65;;;4.07;;
57826;SDS011;43656;57.746;11.780;2022-10-26T16:08:26;13.10;;;3.85;;
57826;SDS011;43656;57.746;11.780;2022-10-26T16:10:56;12.18;;;3.40;;
57826;SDS011;43656;57.746;11.780;2022-10-26T16:13:21;11.85;;;3.60;;
57826;SDS011;43656;57.746;11.780;2022-10-26T16:15:47;14.07;;;3.33;;
57826;SDS011;43656;57.746;11.780;2022-10-26T16:18:13;14.43;;;4.13;;
57826;SDS011;43656;57.746;11.780;2022-10-26T16:20:38;17.13;;;3.92;;
57826;SDS011;43656;57.746;11.780;2022-10-26T16:23:04;13.40;;;3.70;;
57826;SDS011;43656;57.746;11.780;2022-10-26T16:25:31;15.50;;;4.63;;
57826;SDS011;43656;57.746;11.780;2022-10-26T16:27:59;12.85;;;4.35;;
57826;SDS011;43656;57.746;11.780;2022-10-26T16:30:25;11.25;;;4.93;;
57826;SDS011;43656;57.746;11.780;2022-10-26T16:32:50;13.60;;;5.10;;
57826;SDS011;43656;57.746;11.780;2022-10-26T16:35:16;13.75;;;5.63;;
57826;SDS011;43656;57.746;11.780;2022-10-26T16:37:42;12.68;;;5.28;;
57826;SDS011;43656;57.746;11.780;2022-10-26T16:40:07;21.05;;;5.65;;
57826;SDS011;43656;57.746;11.780;2022-10-26T16:42:33;19.67;;;6.55;;
57826;SDS011;43656;57.746;11.780;2022-10-26T16:44:59;16.38;;;6.22;;
57826;SDS011;43656;57.746;11.780;2022-10-26T16:47:24;14.02;;;5.55;;
57826;SDS011;43656;57.746;11.780;2022-10-26T16:49:50;15.02;;;5.03;;
57826;SDS011;43656;57.746;11.780;2022-10-26T16:52:16;16.35;;;4.70;;
57826;SDS011;43656;57.746;11.780;2022-10-26T16:54:41;12.70;;;4.85;;
57826;SDS011;43656;57.746;11.780;2022-10-26T16:57:07;17.98;;;4.70;;
57826;SDS011;43656;57.746;11.780;2022-10-26T16:59:32;13.07;;;4.13;;
57826;SDS011;43656;57.746;11.780;2022-10-26T17:01:58;11.75;;;4.10;;
57826;SDS011;43656;57.746;11.780;2022-10-26T17:04:23;15.00;;;4.03;;
57826;SDS011;43656;57.746;11.780;2022-10-26T17:06:48;15.18;;;3.83;;
57826;SDS011;43656;57.746;11.780;2022-10-26T17:09:14;13.10;;;3.88;;
57826;SDS011;43656;57.746;11.780;2022-10-26T17:11:39;12.23;;;4.13;;
57826;SDS011;43656;57.746;11.780;2022-10-26T17:14:05;18.90;;;4.60;;
57826;SDS011;43656;57.746;11.780;2022-10-26T17:16:30;11.02;;;3.80;;